createdAt,value
2023-04-26T00:02:18.494Z,2.10
2023-04-26T00:04:47.046Z,1.65
2023-04-26T00:07:13.985Z,1.73
2023-04-26T00:09:44.774Z,1.85
2023-04-26T00:12:12.087Z,1.85
2023-04-26T00:14:38.579Z,1.85
2023-04-26T00:17:06.276Z,2.17
2023-04-26T00:19:32.838Z,1.75
2023-04-26T00:21:59.299Z,2.15
2023-04-26T00:24:25.866Z,2.42
2023-04-26T00:26:55.988Z,2.22
2023-04-26T00:29:22.750Z,2.03
2023-04-26T00:31:49.643Z,2.22
2023-04-26T00:34:16.586Z,2.15
2023-04-26T00:36:43.201Z,1.95
2023-04-26T00:39:10.421Z,2.00
2023-04-26T00:41:36.989Z,1.83
2023-04-26T00:44:03.492Z,2.10
2023-04-26T00:46:30.990Z,1.88
2023-04-26T00:48:57.558Z,1.73
2023-04-26T00:51:24.051Z,2.00
2023-04-26T00:53:50.513Z,2.10
2023-04-26T00:56:18.889Z,1.92
2023-04-26T00:58:46.248Z,2.03
2023-04-26T01:01:13.345Z,1.60
2023-04-26T01:03:40.177Z,1.83
2023-04-26T01:06:07.061Z,1.80
2023-04-26T01:08:33.560Z,1.77
2023-04-26T01:11:00.226Z,2.10
2023-04-26T01:13:27.313Z,1.60
2023-04-26T01:15:56.352Z,1.52
2023-04-26T01:18:23.223Z,1.55
2023-04-26T01:20:49.990Z,2.00
2023-04-26T01:23:17.006Z,1.70
2023-04-26T01:25:46.523Z,1.90
2023-04-26T01:28:13.115Z,1.58
2023-04-26T01:30:39.592Z,1.90
2023-04-26T01:33:06.536Z,1.58
2023-04-26T01:35:33.517Z,1.45
2023-04-26T01:38:00.109Z,1.63
2023-04-26T01:40:26.753Z,1.30
2023-04-26T01:42:54.311Z,1.83
2023-04-26T01:45:20.792Z,1.42
2023-04-26T01:47:47.392Z,1.67
2023-04-26T01:50:13.868Z,1.73
2023-04-26T01:52:40.242Z,1.55
2023-04-26T01:55:07.519Z,2.20
2023-04-26T01:57:33.920Z,1.55
2023-04-26T02:00:02.459Z,1.65
2023-04-26T02:02:29.028Z,2.08
2023-04-26T02:04:55.564Z,1.70
2023-04-26T02:07:23.092Z,2.05
2023-04-26T02:09:49.694Z,2.22
2023-04-26T02:12:16.162Z,2.28
2023-04-26T02:14:42.586Z,2.05
2023-04-26T02:17:09.049Z,2.35
2023-04-26T02:19:35.473Z,2.65
2023-04-26T02:22:01.937Z,2.42
2023-04-26T02:24:28.290Z,2.17
2023-04-26T02:26:55.160Z,2.20
2023-04-26T02:29:32.611Z,2.20
2023-04-26T02:32:08.625Z,2.55
2023-04-26T02:34:35.863Z,1.90
2023-04-26T02:37:02.354Z,1.73
2023-04-26T02:39:28.781Z,1.55
2023-04-26T02:41:55.203Z,1.92
2023-04-26T02:44:21.592Z,1.98
2023-04-26T02:46:48.046Z,2.50
2023-04-26T02:49:14.524Z,2.05
2023-04-26T02:51:41.269Z,2.17
2023-04-26T02:54:08.052Z,2.58
2023-04-26T02:56:35.647Z,2.45
2023-04-26T02:59:02.321Z,1.95
2023-04-26T03:01:28.724Z,2.25
2023-04-26T03:03:55.453Z,2.13
2023-04-26T03:06:23.065Z,2.05
2023-04-26T03:08:49.620Z,2.30
2023-04-26T03:11:16.145Z,1.85
2023-04-26T03:13:42.519Z,2.78
2023-04-26T03:16:09.329Z,2.67
2023-04-26T03:18:35.915Z,2.22
2023-04-26T03:21:02.406Z,2.45
2023-04-26T03:23:29.327Z,2.45
2023-04-26T03:25:55.739Z,2.08
2023-04-26T03:28:22.177Z,2.03
2023-04-26T03:30:50.004Z,2.78
2023-04-26T03:33:16.883Z,2.53
2023-04-26T03:35:46.352Z,2.30
2023-04-26T03:38:13.045Z,2.38
2023-04-26T03:40:39.500Z,2.10
2023-04-26T03:43:06.078Z,2.47
2023-04-26T03:45:34.973Z,2.30
2023-04-26T03:48:01.494Z,3.10
2023-04-26T03:50:28.001Z,2.78
2023-04-26T03:52:54.396Z,2.90
2023-04-26T03:55:20.799Z,2.70
2023-04-26T03:57:47.868Z,2.97
2023-04-26T04:00:15.087Z,3.15
2023-04-26T04:02:42.545Z,2.97
2023-04-26T04:05:09.524Z,2.83
2023-04-26T04:07:36.203Z,3.13
2023-04-26T04:10:02.590Z,2.97
2023-04-26T04:12:29.018Z,3.28
2023-04-26T04:14:55.553Z,3.47
2023-04-26T04:17:22.125Z,2.88
2023-04-26T04:19:48.660Z,3.70
2023-04-26T04:22:15.158Z,3.10
2023-04-26T04:24:42.461Z,3.33
2023-04-26T04:27:09.002Z,3.08
2023-04-26T04:29:35.361Z,3.08
2023-04-26T04:32:02.264Z,2.70
2023-04-26T04:34:28.844Z,2.90
2023-04-26T04:36:55.359Z,3.10
2023-04-26T04:39:21.854Z,2.60
2023-04-26T04:41:48.688Z,2.83
2023-04-26T04:44:16.308Z,2.88
2023-04-26T04:46:43.583Z,3.50
2023-04-26T04:49:12.397Z,3.47
2023-04-26T04:51:40.921Z,2.38
2023-04-26T04:54:17.833Z,3.15
2023-04-26T04:56:44.929Z,2.95
2023-04-26T04:59:12.029Z,3.05
2023-04-26T05:01:38.748Z,3.22
2023-04-26T05:04:06.891Z,3.03
2023-04-26T05:06:33.540Z,3.47
2023-04-26T05:09:00.359Z,2.33
2023-04-26T05:11:27.092Z,3.50
2023-04-26T05:13:53.717Z,2.92
2023-04-26T05:16:20.569Z,2.78
2023-04-26T05:18:47.154Z,3.10
2023-04-26T05:21:13.562Z,2.72
2023-04-26T05:23:40.039Z,3.25
2023-04-26T05:26:07.672Z,2.97
2023-04-26T05:28:37.215Z,3.03
2023-04-26T05:33:30.917Z,3.13
2023-04-26T05:35:58.480Z,3.30
2023-04-26T05:38:25.139Z,2.63
2023-04-26T05:40:51.741Z,3.28
2023-04-26T05:43:18.334Z,3.03
2023-04-26T05:45:55.684Z,3.83
2023-04-26T05:48:24.576Z,3.03
2023-04-26T05:50:52.108Z,3.28
2023-04-26T05:53:19.396Z,2.92
2023-04-26T05:55:45.956Z,3.30
2023-04-26T05:58:12.484Z,2.92
2023-04-26T06:00:39.493Z,2.72
2023-04-26T06:03:06.210Z,2.83
2023-04-26T06:05:32.854Z,3.47
2023-04-26T06:07:59.912Z,2.90
2023-04-26T06:10:26.418Z,3.05
2023-04-26T06:12:53.034Z,3.58
2023-04-26T06:15:19.399Z,3.72
2023-04-26T06:17:46.403Z,2.65
2023-04-26T06:20:12.967Z,3.03
2023-04-26T06:22:39.518Z,2.38
2023-04-26T06:25:07.347Z,2.28
2023-04-26T06:27:33.884Z,2.28
2023-04-26T06:30:00.556Z,2.17
2023-04-26T06:32:27.079Z,1.88
2023-04-26T06:34:53.508Z,2.03
2023-04-26T06:37:19.924Z,2.22
2023-04-26T06:39:46.419Z,2.33
2023-04-26T06:42:12.893Z,2.03
2023-04-26T06:44:39.390Z,1.85
2023-04-26T06:47:09.280Z,1.65
2023-04-26T06:49:36.033Z,1.50
2023-04-26T06:52:02.550Z,1.50
2023-04-26T06:54:34.576Z,1.45
2023-04-26T06:57:02.412Z,1.35
2023-04-26T06:59:28.928Z,1.58
2023-04-26T07:01:55.456Z,1.63
2023-04-26T07:04:22.104Z,1.63
2023-04-26T07:06:48.911Z,1.45
2023-04-26T07:09:15.347Z,1.13
2023-04-26T07:11:41.810Z,1.27
2023-04-26T07:14:08.281Z,1.45
2023-04-26T07:16:34.867Z,1.48
2023-04-26T07:19:01.335Z,1.48
2023-04-26T07:21:27.796Z,1.23
2023-04-26T07:23:57.345Z,1.65
2023-04-26T07:26:25.014Z,1.25
2023-04-26T07:28:52.433Z,1.33
2023-04-26T07:31:19.860Z,1.27
2023-04-26T07:33:46.328Z,1.35
2023-04-26T07:36:12.805Z,1.00
2023-04-26T07:38:39.341Z,0.85
2023-04-26T07:41:05.797Z,1.10
2023-04-26T07:43:32.256Z,1.55
2023-04-26T07:46:02.181Z,1.00
2023-04-26T07:48:29.074Z,1.20
2023-04-26T07:50:55.829Z,1.20
2023-04-26T07:53:23.047Z,0.90
2023-04-26T07:55:51.528Z,1.05
2023-04-26T07:58:19.314Z,0.85
2023-04-26T08:00:45.962Z,1.13
2023-04-26T08:03:15.655Z,0.77
2023-04-26T08:05:42.446Z,1.00
2023-04-26T08:08:09.265Z,0.80
2023-04-26T08:10:36.563Z,0.95
2023-04-26T08:13:03.605Z,1.17
2023-04-26T08:15:30.140Z,0.82
2023-04-26T08:17:56.735Z,0.75
2023-04-26T08:20:23.783Z,0.80
2023-04-26T08:22:54.862Z,0.75
2023-04-26T08:25:21.332Z,0.80
2023-04-26T08:27:47.842Z,0.60
2023-04-26T08:30:14.315Z,0.70
2023-04-26T08:32:41.013Z,0.98
2023-04-26T08:35:07.875Z,0.60
2023-04-26T08:37:35.717Z,0.52
2023-04-26T08:40:02.168Z,0.63
2023-04-26T08:42:29.060Z,0.70
2023-04-26T08:44:57.035Z,0.52
2023-04-26T08:47:34.473Z,0.70
2023-04-26T08:50:03.810Z,1.05
2023-04-26T08:52:31.613Z,0.60
2023-04-26T08:54:59.507Z,0.57
2023-04-26T08:57:27.047Z,0.65
2023-04-26T08:59:56.153Z,0.75
2023-04-26T09:02:23.846Z,0.98
2023-04-26T09:04:51.378Z,0.63
2023-04-26T09:07:22.553Z,0.80
2023-04-26T09:09:51.381Z,0.82
2023-04-26T09:12:21.307Z,0.60
2023-04-26T09:14:48.416Z,0.80
2023-04-26T09:17:41.831Z,0.80
2023-04-26T09:20:29.184Z,0.93
2023-04-26T09:23:09.928Z,0.88
2023-04-26T09:25:37.007Z,0.70
2023-04-26T09:28:04.794Z,0.68
2023-04-26T09:30:39.426Z,1.00
2023-04-26T09:33:06.864Z,0.77
2023-04-26T09:35:38.787Z,0.70
2023-04-26T09:38:12.664Z,0.60
2023-04-26T09:40:43.775Z,0.85
2023-04-26T09:43:15.681Z,0.80
2023-04-26T09:45:50.595Z,0.65
2023-04-26T09:48:20.576Z,0.82
2023-04-26T09:50:47.095Z,0.77
2023-04-26T09:53:27.642Z,0.60
2023-04-26T09:56:07.311Z,0.77
2023-04-26T09:58:33.723Z,0.70
2023-04-26T10:01:00.704Z,0.65
2023-04-26T10:03:27.384Z,0.60
2023-04-26T10:05:54.117Z,0.55
2023-04-26T10:08:20.599Z,0.50
2023-04-26T10:10:47.863Z,0.82
2023-04-26T10:13:16.427Z,0.93
2023-04-26T10:15:43.319Z,0.70
2023-04-26T10:18:09.800Z,0.70
2023-04-26T10:20:42.429Z,0.77
2023-04-26T10:23:20.092Z,0.70
2023-04-26T10:25:47.699Z,1.15
2023-04-26T10:28:14.094Z,0.93
2023-04-26T10:30:56.581Z,0.80
2023-04-26T10:33:23.942Z,0.73
2023-04-26T10:36:13.512Z,0.70
2023-04-26T10:38:42.622Z,1.10
2023-04-26T10:43:54.138Z,0.88
2023-04-26T10:46:37.131Z,0.90
2023-04-26T10:49:14.916Z,0.65
2023-04-26T10:51:41.750Z,0.55
2023-04-26T10:54:08.998Z,0.70
2023-04-26T10:56:51.438Z,0.70
2023-04-26T11:01:52.527Z,0.90
2023-04-26T11:04:19.302Z,0.75
2023-04-26T11:06:53.768Z,1.25
2023-04-26T11:09:39.852Z,0.70
2023-04-26T11:12:11.277Z,0.80
2023-04-26T11:14:37.901Z,0.70
2023-04-26T11:17:09.509Z,0.60
2023-04-26T11:19:36.005Z,0.63
2023-04-26T11:22:03.679Z,0.75
2023-04-26T11:24:31.466Z,0.70
2023-04-26T11:26:58.442Z,1.00
2023-04-26T11:29:25.793Z,0.70
2023-04-26T11:31:57.127Z,0.60
2023-04-26T11:34:34.306Z,0.80
2023-04-26T11:37:05.281Z,0.70
2023-04-26T11:39:36.868Z,0.90
2023-04-26T11:42:07.584Z,0.70
2023-04-26T11:44:34.761Z,0.70
2023-04-26T11:47:06.291Z,0.60
2023-04-26T11:49:34.073Z,0.63
2023-04-26T11:52:01.526Z,0.82
2023-04-26T11:54:35.991Z,0.73
2023-04-26T11:57:16.187Z,0.80
2023-04-26T11:59:43.702Z,0.68
2023-04-26T12:02:14.585Z,1.00
2023-04-26T12:04:41.571Z,0.60
2023-04-26T12:07:08.603Z,0.95
2023-04-26T12:09:36.627Z,0.82
2023-04-26T12:12:07.486Z,0.82
2023-04-26T12:14:36.072Z,0.70
2023-04-26T12:17:03.752Z,0.90
2023-04-26T12:19:37.388Z,0.93
2023-04-26T12:22:05.051Z,0.90
2023-04-26T12:24:41.050Z,0.73
2023-04-26T12:27:07.768Z,1.00
2023-04-26T12:29:34.651Z,0.68
2023-04-26T12:32:02.021Z,0.88
2023-04-26T12:34:28.603Z,0.80
2023-04-26T12:36:55.692Z,1.05
2023-04-26T12:39:22.175Z,0.70
2023-04-26T12:41:49.227Z,0.57
2023-04-26T12:44:22.259Z,1.00
2023-04-26T12:46:49.498Z,1.13
2023-04-26T12:49:16.051Z,0.60
2023-04-26T12:51:42.486Z,0.85
2023-04-26T12:54:09.231Z,0.63
2023-04-26T12:56:40.721Z,0.90
2023-04-26T12:59:07.219Z,0.98
2023-04-26T13:01:33.632Z,1.13
2023-04-26T13:04:01.005Z,0.90
2023-04-26T13:06:28.605Z,0.77
2023-04-26T13:08:55.076Z,0.90
2023-04-26T13:11:22.075Z,0.95
2023-04-26T13:13:49.467Z,1.13
2023-04-26T13:16:16.457Z,1.00
2023-04-26T13:18:42.967Z,0.98
2023-04-26T13:21:09.364Z,0.85
2023-04-26T13:23:36.027Z,1.05
2023-04-26T13:26:02.634Z,1.00
2023-04-26T13:28:28.992Z,0.82
2023-04-26T13:30:56.036Z,1.05
2023-04-26T13:33:22.660Z,0.93
2023-04-26T13:35:49.151Z,1.30
2023-04-26T13:38:16.582Z,0.98
2023-04-26T13:40:43.826Z,0.90
2023-04-26T13:43:10.195Z,0.95
2023-04-26T13:45:36.754Z,1.13
2023-04-26T13:48:03.597Z,1.20
2023-04-26T13:50:30.172Z,1.05
2023-04-26T13:52:56.735Z,0.95
2023-04-26T13:55:23.425Z,1.30
2023-04-26T13:57:49.923Z,1.33
2023-04-26T14:00:16.971Z,1.00
2023-04-26T14:02:43.705Z,1.13
2023-04-26T14:05:10.471Z,1.02
2023-04-26T14:07:37.228Z,1.35
2023-04-26T14:10:04.181Z,1.40
2023-04-26T14:12:30.945Z,1.00
2023-04-26T14:14:57.395Z,1.13
2023-04-26T14:17:23.941Z,1.80
2023-04-26T14:19:50.884Z,0.88
2023-04-26T14:22:18.168Z,1.00
2023-04-26T14:24:44.566Z,0.88
2023-04-26T14:27:11.315Z,0.80
2023-04-26T14:29:37.686Z,1.00
2023-04-26T14:32:04.186Z,0.98
2023-04-26T14:34:30.858Z,1.23
2023-04-26T14:37:01.566Z,0.80
2023-04-26T14:39:28.085Z,0.90
2023-04-26T14:41:56.281Z,1.10
2023-04-26T14:44:24.138Z,0.80
2023-04-26T14:46:50.995Z,1.10
2023-04-26T14:49:17.432Z,1.10
2023-04-26T14:51:43.957Z,1.00
2023-04-26T14:54:10.386Z,0.70
2023-04-26T14:56:37.252Z,0.93
2023-04-26T14:59:04.286Z,0.90
2023-04-26T15:01:33.973Z,0.85
2023-04-26T15:04:01.563Z,1.08
2023-04-26T15:06:28.731Z,0.90
2023-04-26T15:08:55.182Z,1.00
2023-04-26T15:11:21.628Z,0.82
2023-04-26T15:13:48.028Z,0.85
2023-04-26T15:16:14.527Z,0.80
2023-04-26T15:18:41.013Z,0.90
2023-04-26T15:21:07.441Z,0.90
2023-04-26T15:23:33.835Z,1.00
2023-04-26T15:26:04.000Z,1.02
2023-04-26T15:28:30.473Z,0.93
2023-04-26T15:31:09.854Z,0.95
2023-04-26T15:33:36.746Z,0.80
2023-04-26T15:36:03.429Z,1.00
2023-04-26T15:38:29.858Z,0.82
2023-04-26T15:40:56.229Z,1.08
2023-04-26T15:43:22.639Z,1.02
2023-04-26T15:45:49.775Z,1.13
2023-04-26T15:48:16.655Z,1.00
2023-04-26T15:50:46.108Z,1.10
2023-04-26T15:53:12.648Z,0.95
2023-04-26T15:55:39.083Z,1.00
2023-04-26T15:58:05.829Z,0.70
2023-04-26T16:00:32.578Z,0.80
2023-04-26T16:02:59.140Z,0.93
2023-04-26T16:05:27.076Z,0.88
2023-04-26T16:07:53.636Z,0.82
2023-04-26T16:10:20.084Z,0.95
2023-04-26T16:12:46.579Z,0.70
2023-04-26T16:15:13.003Z,0.80
2023-04-26T16:17:39.672Z,0.93
2023-04-26T16:20:07.272Z,0.80
2023-04-26T16:22:35.018Z,0.95
2023-04-26T16:25:02.156Z,1.08
2023-04-26T16:27:28.675Z,1.00
2023-04-26T16:29:55.107Z,1.05
2023-04-26T16:32:21.958Z,0.90
2023-04-26T16:34:48.588Z,0.80
2023-04-26T16:37:15.069Z,1.10
2023-04-26T16:39:41.547Z,1.08
2023-04-26T16:42:07.972Z,1.00
2023-04-26T16:44:34.473Z,0.90
2023-04-26T16:47:01.686Z,0.90
2023-04-26T16:49:28.181Z,0.98
2023-04-26T16:51:58.703Z,1.10
2023-04-26T16:54:25.848Z,1.77
2023-04-26T16:56:53.560Z,1.10
2023-04-26T16:59:20.122Z,0.90
2023-04-26T17:01:47.324Z,1.10
2023-04-26T17:04:14.120Z,1.00
2023-04-26T17:06:41.192Z,0.85
2023-04-26T17:09:08.724Z,1.10
2023-04-26T17:11:37.233Z,0.90
2023-04-26T17:14:04.521Z,0.90
2023-04-26T17:16:31.689Z,1.00
2023-04-26T17:18:58.425Z,0.98
2023-04-26T17:21:25.006Z,1.15
2023-04-26T17:23:51.633Z,0.80
2023-04-26T17:26:18.213Z,0.90
2023-04-26T17:28:44.604Z,0.82
2023-04-26T17:31:11.316Z,1.00
2023-04-26T17:33:37.785Z,1.05
2023-04-26T17:36:04.689Z,0.88
2023-04-26T17:38:31.203Z,0.73
2023-04-26T17:40:57.579Z,1.00
2023-04-26T17:43:24.049Z,0.90
2023-04-26T17:45:50.671Z,1.20
2023-04-26T17:48:18.623Z,1.08
2023-04-26T17:50:45.346Z,1.00
2023-04-26T17:53:11.960Z,1.05
2023-04-26T17:55:38.450Z,0.88
2023-04-26T17:58:04.811Z,1.02
2023-04-26T18:00:31.302Z,0.90
2023-04-26T18:02:58.207Z,0.70
2023-04-26T18:05:25.058Z,1.05
2023-04-26T18:07:51.796Z,1.00
2023-04-26T18:10:18.289Z,1.15
2023-04-26T18:12:44.702Z,1.13
2023-04-26T18:15:11.147Z,0.90
2023-04-26T18:17:37.743Z,0.93
2023-04-26T18:20:05.045Z,0.80
2023-04-26T18:22:31.461Z,0.80
2023-04-26T18:24:58.139Z,1.00
2023-04-26T18:27:24.699Z,1.00
2023-04-26T18:29:51.207Z,1.30
2023-04-26T18:32:17.699Z,1.45
2023-04-26T18:34:44.250Z,1.20
2023-04-26T18:37:10.803Z,1.23
2023-04-26T18:39:37.176Z,1.13
2023-04-26T18:42:04.224Z,1.80
2023-04-26T18:44:30.638Z,0.90
2023-04-26T18:46:57.207Z,1.08
2023-04-26T18:49:24.884Z,1.10
2023-04-26T18:51:51.468Z,1.23
2023-04-26T18:54:17.906Z,1.00
2023-04-26T18:56:44.953Z,0.85
2023-04-26T18:59:11.625Z,1.05
2023-04-26T19:01:38.609Z,0.90
2023-04-26T19:04:05.373Z,0.93
2023-04-26T19:06:32.773Z,1.17
2023-04-26T19:08:59.871Z,0.95
2023-04-26T19:11:26.831Z,0.98
2023-04-26T19:13:53.343Z,1.08
2023-04-26T19:16:19.920Z,1.08
2023-04-26T19:18:47.233Z,1.10
2023-04-26T19:21:13.920Z,1.10
2023-04-26T19:23:40.491Z,1.00
2023-04-26T19:26:12.367Z,0.95
2023-04-26T19:28:38.763Z,1.33
2023-04-26T19:31:05.258Z,1.10
2023-04-26T19:33:32.436Z,0.95
2023-04-26T19:35:58.889Z,1.00
2023-04-26T19:38:25.638Z,1.00
2023-04-26T19:40:53.032Z,1.13
2023-04-26T19:43:20.029Z,1.23
2023-04-26T19:45:46.613Z,0.98
2023-04-26T19:48:13.331Z,1.10
2023-04-26T19:50:44.721Z,1.20
2023-04-26T19:53:13.101Z,1.48
2023-04-26T19:55:42.483Z,1.33
2023-04-26T19:58:10.763Z,1.05
2023-04-26T20:00:38.889Z,1.17
2023-04-26T20:03:06.101Z,1.35
2023-04-26T20:05:33.672Z,1.30
2023-04-26T20:08:00.585Z,1.30
2023-04-26T20:10:30.602Z,1.20
2023-04-26T20:12:57.087Z,1.20
2023-04-26T20:15:24.616Z,1.00
2023-04-26T20:17:51.331Z,1.40
2023-04-26T20:20:17.824Z,1.10
2023-04-26T20:22:44.429Z,1.42
2023-04-26T20:25:11.074Z,1.75
2023-04-26T20:27:38.071Z,1.90
2023-04-26T20:30:05.019Z,1.38
2023-04-26T20:32:31.413Z,1.25
2023-04-26T20:34:58.086Z,1.40
2023-04-26T20:37:24.573Z,1.73
2023-04-26T20:39:50.984Z,1.73
2023-04-26T20:42:17.422Z,1.50
2023-04-26T20:44:43.856Z,1.55
2023-04-26T20:47:10.324Z,1.75
2023-04-26T20:49:36.780Z,1.55
2023-04-26T20:52:03.498Z,1.48
2023-04-26T20:54:29.924Z,1.60
2023-04-26T20:56:56.506Z,1.60
2023-04-26T20:59:25.654Z,1.75
2023-04-26T21:01:53.548Z,1.40
2023-04-26T21:04:20.248Z,1.52
2023-04-26T21:06:47.006Z,1.95
2023-04-26T21:09:13.552Z,1.40
2023-04-26T21:11:39.990Z,1.63
2023-04-26T21:14:07.204Z,1.50
2023-04-26T21:16:33.880Z,1.40
2023-04-26T21:19:00.346Z,1.30
2023-04-26T21:21:28.311Z,1.80
2023-04-26T21:23:55.103Z,1.38
2023-04-26T21:26:21.582Z,1.50
2023-04-26T21:28:48.015Z,1.45
2023-04-26T21:31:14.492Z,1.30
2023-04-26T21:33:41.111Z,1.33
2023-04-26T21:36:07.830Z,1.40
2023-04-26T21:38:34.815Z,1.67
2023-04-26T21:41:01.341Z,1.60
2023-04-26T21:43:27.787Z,1.67
2023-04-26T21:45:58.270Z,1.50
2023-04-26T21:48:26.433Z,1.25
2023-04-26T21:50:53.389Z,1.60
2023-04-26T21:53:19.739Z,1.55
2023-04-26T21:55:55.388Z,1.65
2023-04-26T21:58:23.268Z,1.73
2023-04-26T22:00:50.567Z,1.55
2023-04-26T22:03:17.370Z,1.73
2023-04-26T22:05:44.110Z,1.63
2023-04-26T22:08:10.635Z,1.63
2023-04-26T22:10:37.031Z,1.77
2023-04-26T22:13:03.760Z,1.38
2023-04-26T22:15:30.678Z,1.77
2023-04-26T22:17:57.175Z,1.65
2023-04-26T22:20:23.612Z,1.63
2023-04-26T22:22:50.045Z,1.67
2023-04-26T22:25:16.480Z,1.90
2023-04-26T22:27:42.981Z,2.17
2023-04-26T22:30:23.163Z,1.70
2023-04-26T22:32:54.096Z,1.42
2023-04-26T22:37:48.571Z,1.65
2023-04-26T22:40:16.182Z,2.05
2023-04-26T22:42:43.405Z,2.05
2023-04-26T22:45:11.114Z,2.80
2023-04-26T22:47:38.235Z,1.65
2023-04-26T22:50:05.334Z,1.50
2023-04-26T22:52:32.367Z,2.13
2023-04-26T22:54:59.927Z,1.88
2023-04-26T22:57:26.936Z,1.70
2023-04-26T22:59:53.321Z,1.63
2023-04-26T23:02:20.809Z,1.67
2023-04-26T23:04:47.368Z,1.55
2023-04-26T23:07:13.898Z,1.88
2023-04-26T23:09:40.478Z,1.92
2023-04-26T23:12:09.367Z,1.67
2023-04-26T23:14:36.563Z,1.98
2023-04-26T23:17:03.155Z,1.85
2023-04-26T23:19:31.707Z,1.98
2023-04-26T23:21:58.157Z,1.83
2023-04-26T23:24:24.662Z,2.25
2023-04-26T23:26:51.176Z,2.45
2023-04-26T23:29:17.534Z,2.10
2023-04-26T23:31:43.925Z,2.03
2023-04-26T23:34:10.616Z,2.33
2023-04-26T23:36:37.240Z,1.80
2023-04-26T23:39:03.897Z,2.10
2023-04-26T23:41:30.358Z,2.03
2023-04-26T23:43:56.753Z,2.10
2023-04-26T23:46:23.276Z,2.45
2023-04-26T23:48:49.624Z,1.83
2023-04-26T23:51:16.149Z,2.03
2023-04-26T23:53:42.565Z,2.20
2023-04-26T23:56:09.145Z,2.42
2023-04-26T23:58:35.556Z,1.83
